Terminal Aerodrome Forecast
Issued by NWS

Home | Current Version | Previous Version | Text Only | Print | Product List | Glossary On
Versions: 1 2 3 4 5 6 7 8 9 10 11 12 13 14 15 16
055
FTUS46 KSEW 180413 AAC
TAFCLM
TAF AMD
KCLM 180413Z 1804/1824 07004KT 5SM -RA BR SCT020 OVC070
     FM180900 VRB04KT P6SM -RA BKN020 OVC040
     FM181800 28008KT P6SM -SHRA BKN025 BKN050=

USA.gov is the U.S. government's official web portal to all federal, state and local government web resources and services.